sensor_id;sensor_type;location;lat;lon;timestamp;P1;durP1;ratioP1;P2;durP2;ratioP2
44446;SDS011;30152;52.066;5.358;2023-03-16T07:44:41;12.57;;;6.10;;
44446;SDS011;30152;52.066;5.358;2023-03-16T07:47:08;15.02;;;5.93;;
44446;SDS011;30152;52.066;5.358;2023-03-16T07:49:36;13.40;;;5.53;;
44446;SDS011;30152;52.066;5.358;2023-03-16T07:52:02;19.90;;;6.20;;
44446;SDS011;30152;52.066;5.358;2023-03-16T07:54:27;12.43;;;5.65;;
44446;SDS011;30152;52.066;5.358;2023-03-16T07:56:53;14.02;;;5.45;;
44446;SDS011;30152;52.066;5.358;2023-03-16T07:59:19;11.05;;;5.38;;
44446;SDS011;30152;52.066;5.358;2023-03-16T08:01:45;14.95;;;5.55;;
44446;SDS011;30152;52.066;5.358;2023-03-16T08:04:10;13.70;;;6.10;;
44446;SDS011;30152;52.066;5.358;2023-03-16T08:06:36;11.57;;;5.22;;
44446;SDS011;30152;52.066;5.358;2023-03-16T08:09:02;12.80;;;5.50;;
44446;SDS011;30152;52.066;5.358;2023-03-16T08:11:28;12.00;;;5.22;;
44446;SDS011;30152;52.066;5.358;2023-03-16T08:13:53;14.88;;;5.75;;
44446;SDS011;30152;52.066;5.358;2023-03-16T08:16:21;9.85;;;4.22;;
44446;SDS011;30152;52.066;5.358;2023-03-16T08:18:48;14.80;;;5.30;;
44446;SDS011;30152;52.066;5.358;2023-03-16T08:21:14;13.32;;;5.05;;
44446;SDS011;30152;52.066;5.358;2023-03-16T08:23:41;11.57;;;5.28;;
44446;SDS011;30152;52.066;5.358;2023-03-16T08:26:13;11.38;;;4.75;;
44446;SDS011;30152;52.066;5.358;2023-03-16T08:28:41;12.30;;;5.78;;
44446;SDS011;30152;52.066;5.358;2023-03-16T08:31:12;10.25;;;5.18;;
44446;SDS011;30152;52.066;5.358;2023-03-16T08:33:39;11.63;;;4.50;;
44446;SDS011;30152;52.066;5.358;2023-03-16T08:36:05;16.10;;;6.05;;
44446;SDS011;30152;52.066;5.358;2023-03-16T08:38:32;12.38;;;5.50;;
44446;SDS011;30152;52.066;5.358;2023-03-16T08:40:58;10.63;;;4.95;;
44446;SDS011;30152;52.066;5.358;2023-03-16T08:43:24;8.57;;;4.43;;
44446;SDS011;30152;52.066;5.358;2023-03-16T08:45:51;11.65;;;5.22;;
44446;SDS011;30152;52.066;5.358;2023-03-16T08:48:17;10.27;;;4.80;;
44446;SDS011;30152;52.066;5.358;2023-03-16T08:50:44;15.38;;;5.45;;
44446;SDS011;30152;52.066;5.358;2023-03-16T08:53:10;10.48;;;4.85;;
44446;SDS011;30152;52.066;5.358;2023-03-16T08:55:37;11.93;;;4.93;;
44446;SDS011;30152;52.066;5.358;2023-03-16T08:58:05;14.70;;;5.22;;
44446;SDS011;30152;52.066;5.358;2023-03-16T09:00:31;10.27;;;4.43;;
44446;SDS011;30152;52.066;5.358;2023-03-16T09:02:57;11.48;;;4.82;;
44446;SDS011;30152;52.066;5.358;2023-03-16T09:05:24;9.98;;;4.93;;
44446;SDS011;30152;52.066;5.358;2023-03-16T09:07:51;13.15;;;4.75;;
44446;SDS011;30152;52.066;5.358;2023-03-16T09:10:18;10.43;;;4.35;;
44446;SDS011;30152;52.066;5.358;2023-03-16T09:12:46;8.90;;;4.35;;
44446;SDS011;30152;52.066;5.358;2023-03-16T09:15:13;10.35;;;4.22;;
44446;SDS011;30152;52.066;5.358;2023-03-16T09:17:39;13.45;;;4.97;;
44446;SDS011;30152;52.066;5.358;2023-03-16T09:20:06;11.45;;;4.13;;
44446;SDS011;30152;52.066;5.358;2023-03-16T09:22:34;13.45;;;4.90;;
44446;SDS011;30152;52.066;5.358;2023-03-16T09:25:01;10.75;;;5.00;;
44446;SDS011;30152;52.066;5.358;2023-03-16T09:27:27;10.70;;;4.85;;
44446;SDS011;30152;52.066;5.358;2023-03-16T09:29:53;13.18;;;5.20;;
44446;SDS011;30152;52.066;5.358;2023-03-16T09:32:20;9.88;;;4.32;;
44446;SDS011;30152;52.066;5.358;2023-03-16T09:34:46;12.68;;;4.78;;
44446;SDS011;30152;52.066;5.358;2023-03-16T09:37:12;12.60;;;4.20;;
44446;SDS011;30152;52.066;5.358;2023-03-16T09:39:38;9.35;;;4.07;;
44446;SDS011;30152;52.066;5.358;2023-03-16T09:42:11;12.98;;;5.50;;
44446;SDS011;30152;52.066;5.358;2023-03-16T09:47:08;11.15;;;4.05;;
44446;SDS011;30152;52.066;5.358;2023-03-16T09:49:36;13.90;;;4.18;;
44446;SDS011;30152;52.066;5.358;2023-03-16T09:52:18;10.68;;;4.50;;
44446;SDS011;30152;52.066;5.358;2023-03-16T09:57:43;10.38;;;4.28;;
44446;SDS011;30152;52.066;5.358;2023-03-16T10:00:15;9.25;;;4.05;;
44446;SDS011;30152;52.066;5.358;2023-03-16T10:05:19;10.07;;;3.97;;
44446;SDS011;30152;52.066;5.358;2023-03-16T10:12:40;8.55;;;3.75;;
44446;SDS011;30152;52.066;5.358;2023-03-16T10:15:14;12.90;;;4.15;;
44446;SDS011;30152;52.066;5.358;2023-03-16T10:17:45;9.98;;;3.40;;
44446;SDS011;30152;52.066;5.358;2023-03-16T10:20:15;10.40;;;4.03;;
44446;SDS011;30152;52.066;5.358;2023-03-16T10:22:42;7.93;;;4.10;;
44446;SDS011;30152;52.066;5.358;2023-03-16T10:25:19;9.55;;;4.22;;
44446;SDS011;30152;52.066;5.358;2023-03-16T10:27:46;9.85;;;3.35;;
44446;SDS011;30152;52.066;5.358;2023-03-16T10:32:51;11.75;;;3.80;;
44446;SDS011;30152;52.066;5.358;2023-03-16T10:38:02;9.07;;;3.90;;
44446;SDS011;30152;52.066;5.358;2023-03-16T10:40:31;10.80;;;3.85;;
44446;SDS011;30152;52.066;5.358;2023-03-16T10:43:06;14.85;;;4.38;;
44446;SDS011;30152;52.066;5.358;2023-03-16T10:45:36;8.73;;;3.75;;
44446;SDS011;30152;52.066;5.358;2023-03-16T10:48:06;8.90;;;3.08;;
44446;SDS011;30152;52.066;5.358;2023-03-16T10:50:32;7.38;;;3.20;;
44446;SDS011;30152;52.066;5.358;2023-03-16T10:52:58;9.85;;;3.95;;
44446;SDS011;30152;52.066;5.358;2023-03-16T10:55:26;7.85;;;2.92;;
44446;SDS011;30152;52.066;5.358;2023-03-16T10:57:54;10.63;;;3.67;;
44446;SDS011;30152;52.066;5.358;2023-03-16T11:00:21;6.95;;;3.45;;
44446;SDS011;30152;52.066;5.358;2023-03-16T11:02:50;8.70;;;3.67;;
44446;SDS011;30152;52.066;5.358;2023-03-16T11:07:58;14.07;;;3.75;;
44446;SDS011;30152;52.066;5.358;2023-03-16T11:10:27;9.48;;;4.07;;
44446;SDS011;30152;52.066;5.358;2023-03-16T11:12:53;13.80;;;4.13;;
44446;SDS011;30152;52.066;5.358;2023-03-16T11:15:19;9.13;;;3.53;;
44446;SDS011;30152;52.066;5.358;2023-03-16T11:17:49;9.23;;;3.55;;
44446;SDS011;30152;52.066;5.358;2023-03-16T11:20:35;9.57;;;3.30;;
44446;SDS011;30152;52.066;5.358;2023-03-16T11:23:02;7.57;;;3.53;;
44446;SDS011;30152;52.066;5.358;2023-03-16T11:25:34;10.43;;;3.53;;
44446;SDS011;30152;52.066;5.358;2023-03-16T11:30:37;7.63;;;3.28;;
44446;SDS011;30152;52.066;5.358;2023-03-16T11:33:08;7.28;;;2.70;;
44446;SDS011;30152;52.066;5.358;2023-03-16T11:43:22;6.75;;;2.42;;
44446;SDS011;30152;52.066;5.358;2023-03-16T11:48:41;9.68;;;2.95;;
44446;SDS011;30152;52.066;5.358;2023-03-16T11:56:46;8.52;;;3.00;;
44446;SDS011;30152;52.066;5.358;2023-03-16T12:07:41;9.02;;;2.97;;
44446;SDS011;30152;52.066;5.358;2023-03-16T12:10:24;10.25;;;2.55;;
44446;SDS011;30152;52.066;5.358;2023-03-16T12:15:47;11.05;;;2.22;;
44446;SDS011;30152;52.066;5.358;2023-03-16T12:18:19;9.10;;;2.20;;
44446;SDS011;30152;52.066;5.358;2023-03-16T12:20:49;6.93;;;1.92;;
44446;SDS011;30152;52.066;5.358;2023-03-16T12:23:20;9.43;;;2.25;;
44446;SDS011;30152;52.066;5.358;2023-03-16T12:25:53;6.72;;;2.22;;
44446;SDS011;30152;52.066;5.358;2023-03-16T12:28:24;6.40;;;1.95;;
44446;SDS011;30152;52.066;5.358;2023-03-16T12:31:01;6.30;;;2.28;;
44446;SDS011;30152;52.066;5.358;2023-03-16T12:39:07;6.93;;;2.08;;
44446;SDS011;30152;52.066;5.358;2023-03-16T12:42:12;6.88;;;2.00;;
44446;SDS011;30152;52.066;5.358;2023-03-16T12:44:56;8.88;;;2.42;;
44446;SDS011;30152;52.066;5.358;2023-03-16T12:49:52;5.68;;;1.90;;
44446;SDS011;30152;52.066;5.358;2023-03-16T12:52:20;6.55;;;2.05;;
44446;SDS011;30152;52.066;5.358;2023-03-16T12:57:36;8.00;;;2.28;;
44446;SDS011;30152;52.066;5.358;2023-03-16T13:00:04;5.55;;;1.40;;
44446;SDS011;30152;52.066;5.358;2023-03-16T13:02:34;9.32;;;2.17;;
44446;SDS011;30152;52.066;5.358;2023-03-16T13:05:09;5.90;;;1.73;;
44446;SDS011;30152;52.066;5.358;2023-03-16T13:07:47;7.80;;;1.30;;
44446;SDS011;30152;52.066;5.358;2023-03-16T13:12:42;5.38;;;1.38;;
44446;SDS011;30152;52.066;5.358;2023-03-16T13:17:47;4.30;;;1.70;;
44446;SDS011;30152;52.066;5.358;2023-03-16T13:23:06;5.95;;;1.23;;
44446;SDS011;30152;52.066;5.358;2023-03-16T13:28:39;5.80;;;1.40;;
44446;SDS011;30152;52.066;5.358;2023-03-16T13:33:57;6.03;;;1.45;;
44446;SDS011;30152;52.066;5.358;2023-03-16T13:36:25;4.80;;;1.35;;
44446;SDS011;30152;52.066;5.358;2023-03-16T13:39:02;4.78;;;1.40;;
44446;SDS011;30152;52.066;5.358;2023-03-16T13:41:38;5.05;;;1.58;;
44446;SDS011;30152;52.066;5.358;2023-03-16T13:44:04;6.68;;;1.52;;
44446;SDS011;30152;52.066;5.358;2023-03-16T13:46:36;6.15;;;1.65;;
44446;SDS011;30152;52.066;5.358;2023-03-16T13:49:03;6.43;;;1.75;;
44446;SDS011;30152;52.066;5.358;2023-03-16T13:51:28;4.97;;;1.48;;
44446;SDS011;30152;52.066;5.358;2023-03-16T13:54:03;4.57;;;1.30;;
44446;SDS011;30152;52.066;5.358;2023-03-16T13:56:36;6.22;;;1.80;;
44446;SDS011;30152;52.066;5.358;2023-03-16T13:59:04;4.13;;;1.10;;
44446;SDS011;30152;52.066;5.358;2023-03-16T14:01:31;6.22;;;2.00;;
44446;SDS011;30152;52.066;5.358;2023-03-16T14:03:58;5.07;;;1.00;;
44446;SDS011;30152;52.066;5.358;2023-03-16T14:06:32;5.55;;;1.48;;
44446;SDS011;30152;52.066;5.358;2023-03-16T14:09:06;6.32;;;1.75;;
44446;SDS011;30152;52.066;5.358;2023-03-16T14:11:41;5.38;;;1.40;;
44446;SDS011;30152;52.066;5.358;2023-03-16T14:14:12;4.55;;;1.25;;
44446;SDS011;30152;52.066;5.358;2023-03-16T14:16:39;4.28;;;1.30;;
44446;SDS011;30152;52.066;5.358;2023-03-16T14:19:16;6.45;;;1.55;;
44446;SDS011;30152;52.066;5.358;2023-03-16T14:21:46;8.65;;;1.40;;
44446;SDS011;30152;52.066;5.358;2023-03-16T14:27:07;3.85;;;1.05;;
44446;SDS011;30152;52.066;5.358;2023-03-16T14:29:40;5.03;;;1.20;;
44446;SDS011;30152;52.066;5.358;2023-03-16T14:32:16;4.55;;;1.17;;
44446;SDS011;30152;52.066;5.358;2023-03-16T14:35:10;6.63;;;1.30;;
44446;SDS011;30152;52.066;5.358;2023-03-16T14:37:38;6.22;;;1.70;;
44446;SDS011;30152;52.066;5.358;2023-03-16T14:40:06;4.22;;;1.20;;
44446;SDS011;30152;52.066;5.358;2023-03-16T14:42:45;8.43;;;1.33;;
44446;SDS011;30152;52.066;5.358;2023-03-16T14:45:11;7.05;;;1.30;;
44446;SDS011;30152;52.066;5.358;2023-03-16T14:47:46;7.75;;;1.52;;
44446;SDS011;30152;52.066;5.358;2023-03-16T14:50:17;6.63;;;1.30;;
44446;SDS011;30152;52.066;5.358;2023-03-16T14:52:46;5.63;;;1.58;;
44446;SDS011;30152;52.066;5.358;2023-03-16T14:55:14;8.00;;;1.38;;
44446;SDS011;30152;52.066;5.358;2023-03-16T14:57:41;5.65;;;1.30;;
44446;SDS011;30152;52.066;5.358;2023-03-16T15:00:09;6.20;;;1.48;;
44446;SDS011;30152;52.066;5.358;2023-03-16T15:02:36;4.53;;;1.55;;
44446;SDS011;30152;52.066;5.358;2023-03-16T15:05:04;3.80;;;1.15;;
44446;SDS011;30152;52.066;5.358;2023-03-16T15:07:34;6.07;;;1.40;;
44446;SDS011;30152;52.066;5.358;2023-03-16T15:12:39;5.68;;;1.30;;
44446;SDS011;30152;52.066;5.358;2023-03-16T15:15:14;3.47;;;1.48;;
44446;SDS011;30152;52.066;5.358;2023-03-16T15:17:42;4.55;;;1.35;;
44446;SDS011;30152;52.066;5.358;2023-03-16T15:20:13;5.38;;;1.60;;
44446;SDS011;30152;52.066;5.358;2023-03-16T15:22:41;5.07;;;1.38;;
44446;SDS011;30152;52.066;5.358;2023-03-16T15:27:43;4.95;;;1.35;;
44446;SDS011;30152;52.066;5.358;2023-03-16T15:30:14;9.02;;;1.60;;
44446;SDS011;30152;52.066;5.358;2023-03-16T15:32:45;6.57;;;1.88;;
44446;SDS011;30152;52.066;5.358;2023-03-16T15:35:11;8.95;;;1.40;;
44446;SDS011;30152;52.066;5.358;2023-03-16T15:37:37;5.25;;;1.58;;
44446;SDS011;30152;52.066;5.358;2023-03-16T15:40:18;4.80;;;1.30;;
44446;SDS011;30152;52.066;5.358;2023-03-16T15:42:47;5.85;;;1.50;;
44446;SDS011;30152;52.066;5.358;2023-03-16T15:45:15;5.75;;;1.60;;
44446;SDS011;30152;52.066;5.358;2023-03-16T15:47:43;4.75;;;1.50;;
44446;SDS011;30152;52.066;5.358;2023-03-16T15:50:12;4.95;;;1.30;;
44446;SDS011;30152;52.066;5.358;2023-03-16T15:52:40;6.57;;;1.40;;
44446;SDS011;30152;52.066;5.358;2023-03-16T15:55:13;6.25;;;1.05;;
44446;SDS011;30152;52.066;5.358;2023-03-16T15:57:47;5.70;;;1.17;;
44446;SDS011;30152;52.066;5.358;2023-03-16T16:00:41;3.60;;;1.27;;
44446;SDS011;30152;52.066;5.358;2023-03-16T16:03:06;3.25;;;1.27;;
44446;SDS011;30152;52.066;5.358;2023-03-16T16:05:35;5.30;;;1.20;;
44446;SDS011;30152;52.066;5.358;2023-03-16T16:08:01;6.72;;;1.63;;
44446;SDS011;30152;52.066;5.358;2023-03-16T16:10:26;8.95;;;1.50;;
44446;SDS011;30152;52.066;5.358;2023-03-16T16:12:53;5.97;;;1.50;;
44446;SDS011;30152;52.066;5.358;2023-03-16T16:15:21;7.90;;;1.55;;
44446;SDS011;30152;52.066;5.358;2023-03-16T16:17:55;4.30;;;0.90;;
44446;SDS011;30152;52.066;5.358;2023-03-16T16:20:29;3.78;;;1.35;;
44446;SDS011;30152;52.066;5.358;2023-03-16T16:22:58;5.68;;;1.38;;
44446;SDS011;30152;52.066;5.358;2023-03-16T16:25:28;6.88;;;1.48;;
44446;SDS011;30152;52.066;5.358;2023-03-16T16:28:00;3.78;;;1.05;;
44446;SDS011;30152;52.066;5.358;2023-03-16T16:30:29;5.45;;;1.25;;
44446;SDS011;30152;52.066;5.358;2023-03-16T16:32:55;8.55;;;2.20;;
44446;SDS011;30152;52.066;5.358;2023-03-16T16:35:23;7.90;;;2.17;;
44446;SDS011;30152;52.066;5.358;2023-03-16T16:37:50;7.32;;;2.42;;
44446;SDS011;30152;52.066;5.358;2023-03-16T16:40:20;6.82;;;1.77;;
44446;SDS011;30152;52.066;5.358;2023-03-16T16:42:50;6.00;;;1.50;;
44446;SDS011;30152;52.066;5.358;2023-03-16T16:45:20;9.48;;;2.65;;
44446;SDS011;30152;52.066;5.358;2023-03-16T16:47:49;7.28;;;1.42;;
44446;SDS011;30152;52.066;5.358;2023-03-16T16:50:21;6.95;;;2.17;;
44446;SDS011;30152;52.066;5.358;2023-03-16T16:52:50;6.40;;;1.60;;
44446;SDS011;30152;52.066;5.358;2023-03-16T16:55:16;11.02;;;1.92;;
44446;SDS011;30152;52.066;5.358;2023-03-16T16:57:43;7.25;;;1.70;;
44446;SDS011;30152;52.066;5.358;2023-03-16T17:00:16;6.07;;;1.92;;
44446;SDS011;30152;52.066;5.358;2023-03-16T17:02:45;7.75;;;1.67;;
44446;SDS011;30152;52.066;5.358;2023-03-16T17:05:18;6.22;;;1.75;;
44446;SDS011;30152;52.066;5.358;2023-03-16T17:07:46;4.78;;;1.50;;
44446;SDS011;30152;52.066;5.358;2023-03-16T17:10:13;8.25;;;1.65;;
44446;SDS011;30152;52.066;5.358;2023-03-16T17:12:47;9.07;;;1.80;;
44446;SDS011;30152;52.066;5.358;2023-03-16T17:15:47;7.28;;;1.70;;
44446;SDS011;30152;52.066;5.358;2023-03-16T17:18:11;4.47;;;1.27;;
44446;SDS011;30152;52.066;5.358;2023-03-16T17:20:38;7.20;;;1.55;;
44446;SDS011;30152;52.066;5.358;2023-03-16T17:23:09;8.40;;;1.80;;
44446;SDS011;30152;52.066;5.358;2023-03-16T17:25:49;7.25;;;1.80;;
44446;SDS011;30152;52.066;5.358;2023-03-16T17:28:16;4.72;;;1.20;;
44446;SDS011;30152;52.066;5.358;2023-03-16T17:30:42;5.90;;;1.48;;
44446;SDS011;30152;52.066;5.358;2023-03-16T17:33:12;5.70;;;1.30;;
44446;SDS011;30152;52.066;5.358;2023-03-16T17:35:38;5.90;;;1.20;;
44446;SDS011;30152;52.066;5.358;2023-03-16T17:38:15;6.25;;;1.30;;
44446;SDS011;30152;52.066;5.358;2023-03-16T17:40:46;8.10;;;1.60;;
44446;SDS011;30152;52.066;5.358;2023-03-16T17:43:16;6.10;;;1.42;;
44446;SDS011;30152;52.066;5.358;2023-03-16T17:45:44;3.90;;;1.30;;
44446;SDS011;30152;52.066;5.358;2023-03-16T17:48:12;9.48;;;1.85;;
44446;SDS011;30152;52.066;5.358;2023-03-16T17:50:40;5.05;;;1.35;;
44446;SDS011;30152;52.066;5.358;2023-03-16T17:53:06;7.30;;;1.35;;
44446;SDS011;30152;52.066;5.358;2023-03-16T17:55:32;4.53;;;1.35;;
44446;SDS011;30152;52.066;5.358;2023-03-16T17:57:58;6.32;;;1.50;;
44446;SDS011;30152;52.066;5.358;2023-03-16T18:00:26;6.30;;;1.10;;
44446;SDS011;30152;52.066;5.358;2023-03-16T18:05:28;7.53;;;1.67;;
44446;SDS011;30152;52.066;5.358;2023-03-16T18:10:39;3.58;;;1.15;;
44446;SDS011;30152;52.066;5.358;2023-03-16T18:13:07;5.60;;;1.50;;
44446;SDS011;30152;52.066;5.358;2023-03-16T18:15:41;5.07;;;1.60;;
44446;SDS011;30152;52.066;5.358;2023-03-16T18:18:09;7.30;;;2.15;;
44446;SDS011;30152;52.066;5.358;2023-03-16T18:20:40;7.82;;;2.03;;
44446;SDS011;30152;52.066;5.358;2023-03-16T18:23:13;6.90;;;1.75;;
44446;SDS011;30152;52.066;5.358;2023-03-16T18:25:40;4.22;;;1.73;;
44446;SDS011;30152;52.066;5.358;2023-03-16T18:28:07;7.28;;;1.90;;
44446;SDS011;30152;52.066;5.358;2023-03-16T18:30:34;5.93;;;1.73;;
44446;SDS011;30152;52.066;5.358;2023-03-16T18:33:03;5.97;;;2.15;;
44446;SDS011;30152;52.066;5.358;2023-03-16T18:35:30;8.40;;;2.63;;
44446;SDS011;30152;52.066;5.358;2023-03-16T18:37:56;8.50;;;2.72;;
44446;SDS011;30152;52.066;5.358;2023-03-16T18:40:22;7.03;;;2.15;;
44446;SDS011;30152;52.066;5.358;2023-03-16T18:42:50;7.30;;;2.05;;
44446;SDS011;30152;52.066;5.358;2023-03-16T18:45:16;8.68;;;2.35;;
44446;SDS011;30152;52.066;5.358;2023-03-16T18:47:47;8.27;;;2.83;;
44446;SDS011;30152;52.066;5.358;2023-03-16T18:50:19;8.63;;;2.30;;
44446;SDS011;30152;52.066;5.358;2023-03-16T18:52:50;11.45;;;3.78;;
44446;SDS011;30152;52.066;5.358;2023-03-16T18:55:18;7.82;;;3.10;;
44446;SDS011;30152;52.066;5.358;2023-03-16T18:57:46;9.90;;;3.88;;
44446;SDS011;30152;52.066;5.358;2023-03-16T19:00:16;11.40;;;4.22;;
44446;SDS011;30152;52.066;5.358;2023-03-16T19:03:08;9.65;;;4.50;;
44446;SDS011;30152;52.066;5.358;2023-03-16T19:05:37;11.73;;;4.03;;
44446;SDS011;30152;52.066;5.358;2023-03-16T19:08:04;8.77;;;3.78;;
44446;SDS011;30152;52.066;5.358;2023-03-16T19:10:31;12.43;;;4.07;;
44446;SDS011;30152;52.066;5.358;2023-03-16T19:13:00;11.52;;;4.40;;
44446;SDS011;30152;52.066;5.358;2023-03-16T19:15:27;10.65;;;3.67;;
44446;SDS011;30152;52.066;5.358;2023-03-16T19:17:55;9.00;;;3.70;;
44446;SDS011;30152;52.066;5.358;2023-03-16T19:20:23;8.88;;;3.67;;
44446;SDS011;30152;52.066;5.358;2023-03-16T19:22:51;10.15;;;3.33;;
44446;SDS011;30152;52.066;5.358;2023-03-16T19:25:33;8.93;;;2.97;;
44446;SDS011;30152;52.066;5.358;2023-03-16T19:28:00;8.68;;;2.80;;
44446;SDS011;30152;52.066;5.358;2023-03-16T19:30:28;8.90;;;2.65;;
44446;SDS011;30152;52.066;5.358;2023-03-16T19:32:55;8.13;;;2.80;;
44446;SDS011;30152;52.066;5.358;2023-03-16T19:35:22;7.38;;;3.00;;
44446;SDS011;30152;52.066;5.358;2023-03-16T19:37:49;5.90;;;2.50;;
44446;SDS011;30152;52.066;5.358;2023-03-16T19:40:16;6.80;;;2.47;;
44446;SDS011;30152;52.066;5.358;2023-03-16T19:42:44;6.72;;;2.40;;
44446;SDS011;30152;52.066;5.358;2023-03-16T19:45:15;7.53;;;2.08;;
44446;SDS011;30152;52.066;5.358;2023-03-16T19:47:43;6.90;;;2.70;;
44446;SDS011;30152;52.066;5.358;2023-03-16T19:50:13;7.70;;;2.53;;
44446;SDS011;30152;52.066;5.358;2023-03-16T19:52:44;8.27;;;2.40;;
44446;SDS011;30152;52.066;5.358;2023-03-16T19:55:15;5.70;;;2.17;;
44446;SDS011;30152;52.066;5.358;2023-03-16T19:57:42;4.75;;;1.85;;
44446;SDS011;30152;52.066;5.358;2023-03-16T20:00:14;8.20;;;2.70;;
44446;SDS011;30152;52.066;5.358;2023-03-16T20:02:42;5.85;;;2.42;;
44446;SDS011;30152;52.066;5.358;2023-03-16T20:05:19;6.22;;;2.38;;
44446;SDS011;30152;52.066;5.358;2023-03-16T20:07:47;7.55;;;1.80;;
44446;SDS011;30152;52.066;5.358;2023-03-16T20:10:20;6.90;;;2.10;;
44446;SDS011;30152;52.066;5.358;2023-03-16T20:15:15;7.63;;;2.17;;
44446;SDS011;30152;52.066;5.358;2023-03-16T20:17:44;7.45;;;2.40;;
44446;SDS011;30152;52.066;5.358;2023-03-16T20:20:17;6.43;;;2.05;;
44446;SDS011;30152;52.066;5.358;2023-03-16T20:22:46;6.97;;;2.53;;
44446;SDS011;30152;52.066;5.358;2023-03-16T20:25:12;5.60;;;2.40;;
44446;SDS011;30152;52.066;5.358;2023-03-16T20:27:38;5.63;;;2.55;;
44446;SDS011;30152;52.066;5.358;2023-03-16T20:30:12;6.63;;;2.00;;
44446;SDS011;30152;52.066;5.358;2023-03-16T20:32:42;6.30;;;2.03;;
44446;SDS011;30152;52.066;5.358;2023-03-16T20:35:22;6.55;;;2.25;;
44446;SDS011;30152;52.066;5.358;2023-03-16T20:37:51;5.32;;;1.85;;
44446;SDS011;30152;52.066;5.358;2023-03-16T20:40:17;8.27;;;2.10;;
44446;SDS011;30152;52.066;5.358;2023-03-16T20:42:44;7.53;;;2.35;;
44446;SDS011;30152;52.066;5.358;2023-03-16T20:45:24;10.88;;;2.63;;
44446;SDS011;30152;52.066;5.358;2023-03-16T20:47:52;8.40;;;2.22;;
44446;SDS011;30152;52.066;5.358;2023-03-16T20:50:20;7.97;;;2.13;;
44446;SDS011;30152;52.066;5.358;2023-03-16T20:52:51;8.27;;;2.55;;
44446;SDS011;30152;52.066;5.358;2023-03-16T20:55:18;10.32;;;2.30;;
44446;SDS011;30152;52.066;5.358;2023-03-16T20:57:47;6.55;;;2.20;;
44446;SDS011;30152;52.066;5.358;2023-03-16T21:00:19;7.63;;;2.33;;
44446;SDS011;30152;52.066;5.358;2023-03-16T21:02:51;4.95;;;2.13;;
44446;SDS011;30152;52.066;5.358;2023-03-16T21:05:18;6.25;;;2.28;;
44446;SDS011;30152;52.066;5.358;2023-03-16T21:07:44;7.03;;;2.20;;
44446;SDS011;30152;52.066;5.358;2023-03-16T21:10:14;7.10;;;2.15;;
44446;SDS011;30152;52.066;5.358;2023-03-16T21:12:43;5.45;;;2.00;;
44446;SDS011;30152;52.066;5.358;2023-03-16T21:15:15;7.57;;;2.42;;
44446;SDS011;30152;52.066;5.358;2023-03-16T21:17:47;6.93;;;2.35;;
44446;SDS011;30152;52.066;5.358;2023-03-16T21:20:17;8.45;;;2.60;;
44446;SDS011;30152;52.066;5.358;2023-03-16T21:22:44;8.18;;;2.55;;
44446;SDS011;30152;52.066;5.358;2023-03-16T21:25:20;5.53;;;2.03;;
44446;SDS011;30152;52.066;5.358;2023-03-16T21:27:47;7.22;;;2.55;;
44446;SDS011;30152;52.066;5.358;2023-03-16T21:30:17;7.25;;;2.20;;
44446;SDS011;30152;52.066;5.358;2023-03-16T21:32:45;7.53;;;2.92;;
44446;SDS011;30152;52.066;5.358;2023-03-16T21:35:11;6.47;;;2.13;;
44446;SDS011;30152;52.066;5.358;2023-03-16T21:37:37;6.32;;;2.20;;
44446;SDS011;30152;52.066;5.358;2023-03-16T21:40:12;8.00;;;2.13;;
